Terminal Aerodrome Forecast
Issued by NWS Memphis, TN

Home | Current Version | Previous Version | Text Only | Print | Product List | Glossary On
Versions: 1 2 3 4 5 6 7 8 9 10 11 12 13 14 15 16 17 18 19 20 21 22 23 24 25 26 27 28 29
000
FTUS44 KMEG 311120
TAFMEM
TAF
KMEM 311120Z 3112/0112 13004KT P6SM BKN150 OVC200
     FM311400 12006KT P6SM BKN120 OVC250
     FM010500 17010KT P6SM OVC100
     FM011100 18014KT P6SM VCSH OVC050=

USA.gov is the U.S. government's official web portal to all federal, state and local government web resources and services.